createdAt,value
2023-03-02T00:00:45.696Z,2.95
2023-03-02T00:03:13.726Z,2.96
2023-03-02T00:05:40.622Z,2.69
2023-03-02T00:08:08.946Z,2.51
2023-03-02T00:10:36.350Z,2.79
2023-03-02T00:13:15.049Z,2.73
2023-03-02T00:15:41.597Z,2.50
2023-03-02T00:18:08.153Z,2.28
2023-03-02T00:20:34.906Z,2.33
2023-03-02T00:23:01.518Z,2.26
2023-03-02T00:25:28.111Z,2.32
2023-03-02T00:27:54.753Z,2.52
2023-03-02T00:30:22.013Z,2.60
2023-03-02T00:32:51.675Z,2.48
2023-03-02T00:35:18.510Z,2.50
2023-03-02T00:37:45.068Z,2.46
2023-03-02T00:40:12.209Z,2.52
2023-03-02T00:42:38.772Z,2.62
2023-03-02T00:45:05.987Z,2.79
2023-03-02T00:47:36.891Z,2.93
2023-03-02T00:50:06.267Z,3.02
2023-03-02T00:52:33.426Z,3.08
2023-03-02T00:54:59.974Z,3.00
2023-03-02T00:57:26.459Z,2.91
2023-03-02T00:59:53.574Z,3.06
2023-03-02T01:02:20.143Z,3.16
2023-03-02T01:04:47.220Z,3.25
2023-03-02T01:07:18.211Z,3.10
2023-03-02T01:09:45.330Z,3.33
2023-03-02T01:12:12.355Z,3.34
2023-03-02T01:14:41.454Z,3.26
2023-03-02T01:17:10.193Z,2.94
2023-03-02T01:19:37.862Z,3.12
2023-03-02T01:22:04.517Z,2.99
2023-03-02T01:24:31.048Z,3.31
2023-03-02T01:26:57.559Z,3.35
2023-03-02T01:29:24.053Z,3.37
2023-03-02T01:31:51.309Z,3.64
2023-03-02T01:34:17.885Z,3.79
2023-03-02T01:36:46.769Z,3.95
2023-03-02T01:39:13.787Z,4.05
2023-03-02T01:41:43.517Z,4.08
2023-03-02T01:44:48.234Z,3.92
2023-03-02T01:47:27.522Z,3.98
2023-03-02T01:50:01.620Z,4.09
2023-03-02T01:52:29.552Z,3.67
2023-03-02T01:54:58.127Z,3.84
2023-03-02T01:57:28.765Z,3.96
2023-03-02T01:59:59.717Z,3.84
2023-03-02T02:02:26.526Z,3.66
2023-03-02T02:04:55.032Z,3.80
2023-03-02T02:07:21.719Z,3.93
2023-03-02T02:09:50.290Z,3.84
2023-03-02T02:12:19.750Z,3.81
2023-03-02T02:14:47.191Z,3.93
2023-03-02T02:17:14.898Z,3.80
2023-03-02T02:20:13.728Z,3.44
2023-03-02T02:23:14.244Z,3.62
2023-03-02T02:25:52.640Z,3.58
2023-03-02T02:28:26.920Z,3.62
2023-03-02T02:31:24.723Z,3.53
2023-03-02T02:33:55.613Z,3.59
2023-03-02T02:36:26.408Z,3.60
2023-03-02T02:38:55.106Z,3.56
2023-03-02T02:41:25.070Z,3.48
2023-03-02T02:43:51.974Z,3.48
2023-03-02T02:46:18.744Z,3.49
2023-03-02T02:48:48.715Z,3.48
2023-03-02T02:51:20.361Z,3.42
2023-03-02T02:53:56.551Z,3.57
2023-03-02T02:56:26.614Z,3.62
2023-03-02T02:58:55.060Z,3.71
2023-03-02T03:01:23.341Z,3.46
2023-03-02T03:03:56.824Z,3.81
2023-03-02T03:06:33.237Z,3.77
2023-03-02T03:09:03.014Z,3.94
2023-03-02T03:11:31.609Z,4.11
2023-03-02T03:14:05.511Z,4.10
2023-03-02T03:16:33.293Z,4.21
2023-03-02T03:19:05.911Z,4.30
2023-03-02T03:21:32.709Z,4.37
2023-03-02T03:24:00.062Z,4.29
2023-03-02T03:26:26.579Z,4.41
2023-03-02T03:28:53.093Z,4.24
2023-03-02T03:31:19.661Z,4.07
2023-03-02T03:33:46.857Z,3.84
2023-03-02T03:36:13.637Z,3.87
2023-03-02T03:38:42.921Z,3.96
2023-03-02T03:41:09.454Z,4.06
2023-03-02T03:43:36.227Z,3.98
2023-03-02T03:46:02.810Z,3.87
2023-03-02T03:48:29.439Z,3.77
2023-03-02T03:50:55.935Z,3.99
2023-03-02T03:53:23.585Z,4.05
2023-03-02T03:55:50.076Z,3.93
2023-03-02T03:58:16.768Z,3.98
2023-03-02T04:00:43.318Z,3.84
2023-03-02T04:03:09.863Z,4.03
2023-03-02T04:05:36.360Z,4.17
2023-03-02T04:08:02.906Z,4.32
2023-03-02T04:10:29.526Z,4.34
2023-03-02T04:12:56.561Z,4.39
2023-03-02T04:15:23.421Z,4.64
2023-03-02T04:17:49.978Z,4.77
2023-03-02T04:20:17.933Z,4.84
2023-03-02T04:22:47.117Z,4.85
2023-03-02T04:25:15.161Z,4.76
2023-03-02T04:27:43.550Z,4.76
2023-03-02T04:30:11.514Z,4.84
2023-03-02T04:32:38.144Z,4.96
2023-03-02T04:35:05.222Z,4.90
2023-03-02T04:37:31.767Z,4.72
2023-03-02T04:39:58.396Z,4.69
2023-03-02T04:42:24.906Z,4.84
2023-03-02T04:44:51.891Z,4.93
2023-03-02T04:47:18.427Z,4.96
2023-03-02T04:49:45.245Z,4.91
2023-03-02T04:52:12.008Z,4.67
2023-03-02T04:54:38.553Z,4.43
2023-03-02T04:57:05.107Z,4.16
2023-03-02T04:59:31.626Z,4.26
2023-03-02T05:01:59.720Z,4.31
2023-03-02T05:04:27.900Z,3.93
2023-03-02T05:06:54.993Z,4.04
2023-03-02T05:09:21.706Z,4.29
2023-03-02T05:11:48.190Z,4.32
2023-03-02T05:14:17.242Z,4.28
2023-03-02T05:16:43.931Z,4.37
2023-03-02T05:19:11.696Z,4.46
2023-03-02T05:21:39.246Z,4.63
2023-03-02T05:24:06.118Z,4.61
2023-03-02T05:26:32.938Z,4.62
2023-03-02T05:28:59.721Z,4.62
2023-03-02T05:31:35.321Z,4.61
2023-03-02T05:34:03.450Z,4.75
2023-03-02T05:36:30.349Z,4.47
2023-03-02T05:38:56.982Z,4.43
2023-03-02T05:41:23.582Z,4.51
2023-03-02T05:43:50.179Z,4.60
2023-03-02T05:46:17.079Z,4.49
2023-03-02T05:48:43.786Z,4.30
2023-03-02T05:51:10.359Z,4.02
2023-03-02T05:53:37.190Z,4.33
2023-03-02T05:56:03.874Z,4.28
2023-03-02T05:58:30.350Z,4.31
2023-03-02T06:00:57.890Z,4.28
2023-03-02T06:03:24.436Z,4.26
2023-03-02T06:05:51.165Z,4.46
2023-03-02T06:08:21.146Z,4.52
2023-03-02T06:10:48.275Z,4.58
2023-03-02T06:13:14.856Z,4.64
2023-03-02T06:15:44.383Z,4.55
2023-03-02T06:18:10.955Z,4.52
2023-03-02T06:20:37.459Z,4.51
2023-03-02T06:23:03.954Z,4.39
2023-03-02T06:25:30.633Z,4.05
2023-03-02T06:27:57.592Z,4.06
2023-03-02T06:30:25.783Z,3.83
2023-03-02T06:32:52.435Z,3.97
2023-03-02T06:35:19.347Z,4.03
2023-03-02T06:37:45.951Z,3.98
2023-03-02T06:40:13.234Z,4.03
2023-03-02T06:42:40.809Z,4.14
2023-03-02T06:45:08.174Z,4.20
2023-03-02T06:47:34.669Z,4.35
2023-03-02T06:50:01.275Z,4.23
2023-03-02T06:52:28.090Z,4.29
2023-03-02T06:54:55.091Z,4.25
2023-03-02T06:57:21.610Z,4.21
2023-03-02T06:59:48.104Z,4.28
2023-03-02T07:02:14.632Z,4.10
2023-03-02T07:04:41.900Z,4.22
2023-03-02T07:07:09.546Z,4.47
2023-03-02T07:09:36.089Z,4.49
2023-03-02T07:12:02.569Z,4.67
2023-03-02T07:14:29.074Z,4.69
2023-03-02T07:16:55.613Z,4.67
2023-03-02T07:19:22.114Z,4.71
2023-03-02T07:21:48.641Z,4.71
2023-03-02T07:24:15.168Z,4.87
2023-03-02T07:26:41.765Z,4.84
2023-03-02T07:29:08.270Z,4.85
2023-03-02T07:31:35.096Z,4.87
2023-03-02T07:34:01.724Z,4.72
2023-03-02T07:36:28.283Z,4.83
2023-03-02T07:38:54.777Z,4.97
2023-03-02T07:41:21.355Z,5.18
2023-03-02T07:43:47.872Z,5.09
2023-03-02T07:46:14.430Z,5.09
2023-03-02T07:48:41.489Z,5.30
2023-03-02T07:51:07.987Z,5.06
2023-03-02T07:53:34.861Z,5.10
2023-03-02T07:56:06.546Z,5.38
2023-03-02T07:58:33.043Z,5.60
2023-03-02T08:00:59.656Z,5.67
2023-03-02T08:03:26.416Z,5.25
2023-03-02T08:05:52.883Z,5.44
2023-03-02T08:08:19.407Z,5.55
2023-03-02T08:10:45.908Z,5.54
2023-03-02T08:13:15.519Z,5.53
2023-03-02T08:15:42.030Z,5.78
2023-03-02T08:18:10.528Z,5.96
2023-03-02T08:20:40.141Z,6.18
2023-03-02T08:23:08.624Z,6.23
2023-03-02T08:25:35.139Z,6.35
2023-03-02T08:28:01.635Z,6.36
2023-03-02T08:30:28.242Z,6.19
2023-03-02T08:32:55.279Z,6.17
2023-03-02T08:35:21.946Z,6.34
2023-03-02T08:37:48.453Z,6.58
2023-03-02T08:40:17.036Z,6.85
2023-03-02T08:42:43.537Z,6.79
2023-03-02T08:45:10.253Z,6.61
2023-03-02T08:47:38.730Z,6.73
2023-03-02T08:50:05.860Z,7.02
2023-03-02T08:52:35.234Z,7.09
2023-03-02T08:55:03.742Z,6.76
2023-03-02T08:57:30.675Z,6.81
2023-03-02T08:59:57.294Z,6.74
2023-03-02T09:02:23.857Z,6.87
2023-03-02T09:04:50.412Z,7.04
2023-03-02T09:07:17.034Z,6.83
2023-03-02T09:09:43.817Z,6.86
2023-03-02T09:12:10.401Z,6.79
2023-03-02T09:14:36.965Z,6.92
2023-03-02T09:17:03.466Z,6.90
2023-03-02T09:19:30.000Z,7.16
2023-03-02T09:21:56.528Z,7.28
2023-03-02T09:24:23.055Z,7.56
2023-03-02T09:26:49.532Z,7.68
2023-03-02T09:29:16.021Z,7.61
2023-03-02T09:31:42.622Z,7.94
2023-03-02T09:34:09.698Z,7.85
2023-03-02T09:36:36.386Z,7.59
2023-03-02T09:39:02.962Z,7.74
2023-03-02T09:41:37.198Z,8.02
2023-03-02T09:44:25.619Z,8.36
2023-03-02T09:47:35.775Z,8.69
2023-03-02T09:50:17.103Z,9.00
2023-03-02T09:53:06.837Z,9.21
2023-03-02T09:55:36.374Z,9.35
2023-03-02T09:58:07.031Z,9.08
2023-03-02T10:00:39.372Z,8.93
2023-03-02T10:03:19.899Z,9.14
2023-03-02T10:05:48.837Z,9.11
2023-03-02T10:08:18.337Z,9.08
2023-03-02T10:10:53.271Z,8.69
2023-03-02T10:13:22.361Z,8.58
2023-03-02T10:15:57.881Z,8.72
2023-03-02T10:18:32.892Z,8.96
2023-03-02T10:21:16.485Z,9.24
2023-03-02T10:23:52.151Z,9.39
2023-03-02T10:26:24.744Z,9.29
2023-03-02T10:29:07.895Z,9.38
2023-03-02T10:31:34.387Z,9.30
2023-03-02T10:34:01.260Z,9.37
2023-03-02T10:36:36.032Z,9.41
2023-03-02T10:39:03.485Z,9.44
2023-03-02T10:41:36.540Z,9.70
2023-03-02T10:44:31.441Z,9.83
2023-03-02T10:46:58.022Z,9.63
2023-03-02T10:49:32.679Z,9.97
2023-03-02T10:52:03.032Z,10.14
2023-03-02T10:54:30.371Z,10.18
2023-03-02T10:57:02.911Z,10.26
2023-03-02T10:59:39.429Z,10.28
2023-03-02T11:02:14.129Z,10.39
2023-03-02T11:04:40.844Z,10.41
2023-03-02T11:07:15.692Z,10.63
2023-03-02T11:09:44.756Z,10.82
2023-03-02T11:12:15.323Z,10.47
2023-03-02T11:14:41.836Z,10.32
2023-03-02T11:17:40.448Z,10.19
2023-03-02T11:20:15.178Z,10.29
2023-03-02T11:23:19.647Z,10.10
2023-03-02T11:25:53.145Z,9.88
2023-03-02T11:28:25.747Z,9.71
2023-03-02T11:30:53.894Z,9.38
2023-03-02T11:33:26.005Z,9.53
2023-03-02T11:35:59.308Z,9.32
2023-03-02T11:38:28.915Z,9.22
2023-03-02T11:41:14.191Z,9.38
2023-03-02T11:43:41.030Z,9.26
2023-03-02T11:46:21.657Z,8.98
2023-03-02T11:48:51.780Z,8.81
2023-03-02T11:51:23.696Z,8.51
2023-03-02T11:53:58.586Z,8.46
2023-03-02T11:56:26.790Z,8.15
2023-03-02T11:58:59.053Z,8.20
2023-03-02T12:01:26.972Z,8.30
2023-03-02T12:03:53.896Z,8.13
2023-03-02T12:06:20.296Z,7.95
2023-03-02T12:08:49.512Z,8.10
2023-03-02T12:11:19.102Z,8.08
2023-03-02T12:13:54.559Z,8.15
2023-03-02T12:16:37.238Z,7.78
2023-03-02T12:19:16.043Z,7.47
2023-03-02T12:21:56.635Z,7.51
2023-03-02T12:24:28.752Z,7.46
2023-03-02T12:27:01.295Z,7.69
2023-03-02T12:29:38.856Z,7.81
2023-03-02T12:32:23.699Z,7.87
2023-03-02T12:34:56.683Z,8.02
2023-03-02T12:37:32.061Z,8.01
2023-03-02T12:40:18.475Z,8.05
2023-03-02T12:42:53.953Z,7.75
2023-03-02T12:45:25.026Z,7.58
2023-03-02T12:48:00.897Z,7.32
2023-03-02T12:50:30.989Z,7.58
2023-03-02T12:53:05.573Z,7.65
2023-03-02T12:55:32.548Z,7.70
2023-03-02T12:58:01.882Z,7.80
2023-03-02T13:00:31.825Z,7.98
2023-03-02T13:02:59.770Z,7.98
2023-03-02T13:05:32.815Z,8.02
2023-03-02T13:08:02.110Z,8.06
2023-03-02T13:10:38.244Z,8.22
2023-03-02T13:13:14.979Z,8.26
2023-03-02T13:15:56.202Z,8.24
2023-03-02T13:18:24.682Z,8.49
2023-03-02T13:20:51.948Z,8.50
2023-03-02T13:23:19.202Z,8.72
2023-03-02T13:25:57.829Z,8.77
2023-03-02T13:28:29.626Z,8.49
2023-03-02T13:31:05.545Z,8.29
2023-03-02T13:33:33.920Z,8.49
2023-03-02T13:36:00.434Z,8.76
2023-03-02T13:38:31.499Z,8.70
2023-03-02T13:40:58.058Z,8.58
2023-03-02T13:43:34.704Z,8.42
2023-03-02T13:46:05.442Z,8.51
2023-03-02T13:48:32.485Z,8.57
2023-03-02T13:51:17.651Z,8.62
2023-03-02T13:53:52.031Z,8.87
2023-03-02T13:56:21.414Z,8.87
2023-03-02T13:58:49.066Z,8.99
2023-03-02T14:01:15.890Z,8.66
2023-03-02T14:03:42.537Z,8.83
2023-03-02T14:06:09.337Z,8.71
2023-03-02T14:08:35.913Z,8.87
2023-03-02T14:11:04.278Z,8.95
2023-03-02T14:13:37.540Z,8.90
2023-03-02T14:16:04.601Z,8.80
2023-03-02T14:18:37.717Z,8.67
2023-03-02T14:21:05.078Z,8.61
2023-03-02T14:23:33.927Z,8.50
2023-03-02T14:26:00.508Z,8.55
2023-03-02T14:28:33.908Z,8.76
2023-03-02T14:31:00.404Z,8.95
2023-03-02T14:33:27.165Z,8.92
2023-03-02T14:35:56.665Z,8.91
2023-03-02T14:38:25.013Z,8.97
2023-03-02T14:40:52.257Z,8.81
2023-03-02T14:43:18.881Z,8.94
2023-03-02T14:45:46.341Z,8.96
2023-03-02T14:48:13.051Z,9.03
2023-03-02T14:50:41.168Z,9.10
2023-03-02T14:53:12.852Z,9.10
2023-03-02T14:55:40.525Z,9.14
2023-03-02T14:58:13.092Z,8.96
2023-03-02T15:00:39.587Z,9.16
2023-03-02T15:03:06.241Z,9.11
2023-03-02T15:05:36.929Z,9.34
2023-03-02T15:08:03.539Z,9.41
2023-03-02T15:10:35.836Z,9.52
2023-03-02T15:13:04.465Z,9.51
2023-03-02T15:15:32.718Z,9.23
2023-03-02T15:17:59.200Z,9.19
2023-03-02T15:20:25.655Z,8.96
2023-03-02T15:22:52.598Z,9.03
2023-03-02T15:25:19.096Z,9.14
2023-03-02T15:27:45.733Z,9.19
2023-03-02T15:30:12.451Z,8.93
2023-03-02T15:32:39.064Z,8.92
2023-03-02T15:35:06.250Z,8.97
2023-03-02T15:37:35.297Z,8.97
2023-03-02T15:40:01.762Z,8.97
2023-03-02T15:42:31.387Z,8.84
2023-03-02T15:44:57.881Z,8.89
2023-03-02T15:47:24.578Z,9.04
2023-03-02T15:49:53.679Z,9.02
2023-03-02T15:52:21.329Z,8.88
2023-03-02T15:54:48.007Z,9.18
2023-03-02T15:57:14.549Z,9.19
2023-03-02T15:59:41.058Z,9.30
2023-03-02T16:02:07.563Z,9.33
2023-03-02T16:04:34.078Z,9.43
2023-03-02T16:07:01.002Z,9.29
2023-03-02T16:09:27.982Z,9.08
2023-03-02T16:11:54.537Z,9.22
2023-03-02T16:14:21.018Z,9.26
2023-03-02T16:16:48.184Z,9.11
2023-03-02T16:19:18.883Z,9.27
2023-03-02T16:21:48.669Z,9.41
2023-03-02T16:24:15.576Z,9.38
2023-03-02T16:26:42.667Z,9.22
2023-03-02T16:29:12.834Z,9.17
2023-03-02T16:31:41.395Z,9.09
2023-03-02T16:34:10.066Z,9.04
2023-03-02T16:36:38.796Z,8.97
2023-03-02T16:39:06.745Z,8.81
2023-03-02T16:41:34.004Z,8.67
2023-03-02T16:44:01.322Z,8.64
2023-03-02T16:46:30.866Z,8.59
2023-03-02T16:48:58.339Z,8.60
2023-03-02T16:51:25.107Z,8.63
2023-03-02T16:53:52.205Z,8.67
2023-03-02T16:56:18.912Z,8.57
2023-03-02T16:58:45.596Z,8.25
2023-03-02T17:01:15.809Z,8.24
2023-03-02T17:03:42.763Z,8.25
2023-03-02T17:06:10.597Z,8.07
2023-03-02T17:08:37.111Z,8.09
2023-03-02T17:11:03.766Z,8.17
2023-03-02T17:13:31.430Z,8.21
2023-03-02T17:15:58.522Z,8.05
2023-03-02T17:18:25.652Z,8.03
2023-03-02T17:20:54.172Z,7.99
2023-03-02T17:23:21.074Z,7.96
2023-03-02T17:25:49.514Z,7.86
2023-03-02T17:28:16.385Z,7.64
2023-03-02T17:30:43.508Z,7.65
2023-03-02T17:33:10.637Z,7.42
2023-03-02T17:35:37.612Z,7.22
2023-03-02T17:38:04.980Z,7.12
2023-03-02T17:40:32.248Z,7.14
2023-03-02T17:43:03.116Z,7.06
2023-03-02T17:45:30.248Z,6.99
2023-03-02T17:48:00.856Z,6.89
2023-03-02T17:50:28.886Z,6.62
2023-03-02T17:52:55.553Z,6.67
2023-03-02T17:55:22.658Z,6.67
2023-03-02T17:57:49.865Z,6.73
2023-03-02T18:00:20.028Z,6.65
2023-03-02T18:02:46.554Z,6.71
2023-03-02T18:05:14.158Z,6.68
2023-03-02T18:07:41.420Z,6.65
2023-03-02T18:10:08.556Z,6.74
2023-03-02T18:12:35.057Z,6.71
2023-03-02T18:15:01.695Z,6.75
2023-03-02T18:17:29.310Z,6.63
2023-03-02T18:19:56.397Z,6.51
2023-03-02T18:22:23.314Z,6.31
2023-03-02T18:24:49.918Z,6.08
2023-03-02T18:27:16.504Z,6.23
2023-03-02T18:29:43.092Z,6.21
2023-03-02T18:32:11.071Z,6.41
2023-03-02T18:34:37.788Z,6.51
2023-03-02T18:37:04.319Z,6.49
2023-03-02T18:39:30.840Z,6.50
2023-03-02T18:41:57.605Z,6.47
2023-03-02T18:44:24.145Z,6.31
2023-03-02T18:46:51.320Z,6.36
2023-03-02T18:49:20.154Z,6.46
2023-03-02T18:51:46.792Z,6.35
2023-03-02T18:54:14.713Z,6.37
2023-03-02T18:56:41.260Z,6.35
2023-03-02T18:59:08.054Z,6.27
2023-03-02T19:01:34.654Z,6.21
2023-03-02T19:04:01.526Z,6.28
2023-03-02T19:06:28.815Z,6.37
2023-03-02T19:08:55.378Z,6.29
2023-03-02T19:11:22.511Z,6.24
2023-03-02T19:13:50.170Z,6.21
2023-03-02T19:16:18.370Z,5.88
2023-03-02T19:18:45.169Z,5.73
2023-03-02T19:21:11.975Z,5.78
2023-03-02T19:23:39.154Z,5.86
2023-03-02T19:26:05.695Z,5.80
2023-03-02T19:28:32.220Z,5.80
2023-03-02T19:31:03.872Z,5.69
2023-03-02T19:33:30.384Z,5.73
2023-03-02T19:35:58.083Z,5.75
2023-03-02T19:38:25.052Z,5.69
2023-03-02T19:40:51.607Z,5.76
2023-03-02T19:43:21.705Z,5.84
2023-03-02T19:45:48.262Z,5.91
2023-03-02T19:48:14.778Z,5.92
2023-03-02T19:50:41.788Z,5.86
2023-03-02T19:53:08.315Z,5.81
2023-03-02T19:55:35.986Z,5.51
2023-03-02T19:58:02.705Z,5.67
2023-03-02T20:00:32.337Z,5.58
2023-03-02T20:03:00.313Z,5.52
2023-03-02T20:05:27.823Z,5.65
2023-03-02T20:07:54.790Z,5.72
2023-03-02T20:10:26.547Z,5.62
2023-03-02T20:12:53.654Z,5.59
2023-03-02T20:15:21.314Z,5.69
2023-03-02T20:17:48.299Z,5.79
2023-03-02T20:20:14.800Z,5.60
2023-03-02T20:22:41.513Z,5.52
2023-03-02T20:25:09.133Z,5.46
2023-03-02T20:27:35.660Z,5.48
2023-03-02T20:30:02.260Z,5.54
2023-03-02T20:32:29.166Z,5.45
2023-03-02T20:34:55.937Z,5.22
2023-03-02T20:37:22.477Z,5.27
2023-03-02T20:39:49.024Z,5.27
2023-03-02T20:42:15.496Z,5.50
2023-03-02T20:44:43.646Z,5.45
2023-03-02T20:47:13.407Z,5.57
2023-03-02T20:49:40.606Z,5.64
2023-03-02T20:52:08.525Z,5.76
2023-03-02T20:54:40.361Z,5.72
2023-03-02T20:57:08.033Z,5.75
2023-03-02T20:59:36.620Z,5.68
2023-03-02T21:02:03.340Z,5.53
2023-03-02T21:04:29.948Z,5.49
2023-03-02T21:06:56.500Z,5.32
2023-03-02T21:09:22.990Z,5.45
2023-03-02T21:11:49.492Z,5.45
2023-03-02T21:14:16.246Z,5.43
2023-03-02T21:16:43.760Z,5.43
2023-03-02T21:19:14.436Z,5.50
2023-03-02T21:21:42.398Z,5.35
2023-03-02T21:24:11.147Z,5.31
2023-03-02T21:26:37.763Z,5.07
2023-03-02T21:29:05.473Z,5.15
2023-03-02T21:31:32.429Z,5.18
2023-03-02T21:33:59.025Z,4.96
2023-03-02T21:36:25.664Z,4.98
2023-03-02T21:38:52.752Z,4.94
2023-03-02T21:41:19.398Z,4.86
2023-03-02T21:43:45.998Z,5.01
2023-03-02T21:46:14.434Z,5.04
2023-03-02T21:48:41.591Z,5.05
2023-03-02T21:51:11.109Z,5.20
2023-03-02T21:53:39.010Z,4.88
2023-03-02T21:56:09.492Z,4.73
2023-03-02T21:58:35.907Z,4.76
2023-03-02T22:01:03.425Z,4.76
2023-03-02T22:03:29.921Z,4.49
2023-03-02T22:05:56.381Z,4.46
2023-03-02T22:08:23.250Z,4.70
2023-03-02T22:10:51.437Z,4.61
2023-03-02T22:13:24.118Z,4.61
2023-03-02T22:16:13.584Z,4.31
2023-03-02T22:18:46.181Z,4.18
2023-03-02T22:21:45.401Z,4.37
2023-03-02T22:24:11.912Z,4.48
2023-03-02T22:27:10.706Z,4.31
2023-03-02T22:29:45.716Z,4.45
2023-03-02T22:32:21.801Z,4.20
2023-03-02T22:34:56.548Z,4.28
2023-03-02T22:37:25.952Z,4.07
2023-03-02T22:39:55.890Z,3.99
2023-03-02T22:42:24.681Z,4.08
2023-03-02T22:45:01.737Z,3.75
2023-03-02T22:47:28.329Z,3.80
2023-03-02T22:50:11.641Z,3.34
2023-03-02T22:52:39.241Z,3.41
2023-03-02T22:55:44.141Z,3.63
2023-03-02T22:58:48.065Z,3.66
2023-03-02T23:01:20.786Z,3.95
2023-03-02T23:03:53.042Z,3.96
2023-03-02T23:06:30.091Z,3.84
2023-03-02T23:09:02.138Z,3.93
2023-03-02T23:11:32.250Z,4.07
2023-03-02T23:14:00.688Z,3.89
2023-03-02T23:16:29.010Z,3.58
2023-03-02T23:18:56.812Z,3.67
2023-03-02T23:21:37.471Z,3.42
2023-03-02T23:24:04.439Z,3.66
2023-03-02T23:26:30.975Z,3.60
2023-03-02T23:28:57.533Z,3.33
2023-03-02T23:31:24.465Z,3.24
2023-03-02T23:33:51.241Z,3.30
2023-03-02T23:36:17.737Z,3.26
2023-03-02T23:38:44.244Z,3.59
2023-03-02T23:41:10.772Z,3.62
2023-03-02T23:43:38.422Z,3.65
2023-03-02T23:46:05.593Z,3.54
2023-03-02T23:48:32.802Z,3.68
2023-03-02T23:50:59.686Z,3.58
2023-03-02T23:53:26.569Z,3.60
2023-03-02T23:55:54.542Z,3.39
2023-03-02T23:58:23.225Z,3.39
